createdAt,value
2022-12-09T00:59:51.924Z,86.50
2022-12-09T01:00:25.939Z,86.80
2022-12-09T01:01:00.793Z,86.80
2022-12-09T01:01:36.417Z,87.00
2022-12-09T01:02:10.910Z,87.00
2022-12-09T01:02:47.882Z,87.00
2022-12-09T01:03:22.817Z,87.00
2022-12-09T01:03:56.336Z,86.80
2022-12-09T01:04:32.515Z,86.50
2022-12-09T01:05:10.465Z,86.30
2022-12-09T01:05:45.606Z,86.10
2022-12-09T01:06:22.269Z,86.30
2022-12-09T01:06:56.659Z,86.50
2022-12-09T01:07:31.035Z,86.60
2022-12-09T01:08:07.112Z,86.60
2022-12-09T01:08:42.958Z,86.50
2022-12-09T01:09:19.065Z,86.40
2022-12-09T01:09:54.321Z,86.20
2022-12-09T01:10:30.640Z,86.20
2022-12-09T01:11:11.258Z,86.30
2022-12-09T01:11:46.526Z,86.30
2022-12-09T01:12:20.817Z,86.40
2022-12-09T01:12:55.218Z,86.50
2022-12-09T01:13:31.638Z,86.50
2022-12-09T01:14:05.716Z,86.30
2022-12-09T01:14:42.230Z,86.20
2022-12-09T01:15:17.386Z,86.00
2022-12-09T01:15:52.497Z,86.00
2022-12-09T01:16:29.886Z,86.00
2022-12-09T01:17:04.678Z,86.10
2022-12-09T01:17:39.100Z,86.10
2022-12-09T01:18:14.501Z,86.10
2022-12-09T01:18:48.771Z,86.20
2022-12-09T01:19:23.510Z,86.10
2022-12-09T01:19:57.795Z,86.10
2022-12-09T01:20:32.498Z,86.00
2022-12-09T01:21:09.226Z,85.90
2022-12-09T01:21:44.426Z,85.90
2022-12-09T01:22:19.236Z,86.00
2022-12-09T01:22:53.146Z,86.30
2022-12-09T01:23:28.410Z,86.30
2022-12-09T01:24:11.576Z,86.30
2022-12-09T01:24:46.197Z,86.30
2022-12-09T01:25:21.953Z,86.30
2022-12-09T01:25:58.031Z,86.30
2022-12-09T01:26:32.975Z,86.30
2022-12-09T01:27:06.617Z,86.40
2022-12-09T01:27:42.528Z,86.40
2022-12-09T01:28:17.599Z,86.40
2022-12-09T01:28:53.610Z,86.30
2022-12-09T01:29:30.410Z,86.40
2022-12-09T01:30:05.347Z,86.40
2022-12-09T01:30:40.171Z,86.30
2022-12-09T01:31:17.051Z,86.20
2022-12-09T01:31:50.970Z,86.20
2022-12-09T01:32:25.921Z,86.30
2022-12-09T01:33:00.570Z,86.40
2022-12-09T01:33:36.651Z,86.40
2022-12-09T01:34:10.871Z,86.50
2022-12-09T01:34:45.596Z,86.60
2022-12-09T01:35:20.725Z,86.50
2022-12-09T01:35:58.557Z,86.50
2022-12-09T01:36:32.583Z,86.40
2022-12-09T01:37:07.551Z,86.30
2022-12-09T01:37:42.615Z,86.00
2022-12-09T01:38:17.195Z,85.80
2022-12-09T01:38:52.641Z,85.90
2022-12-09T01:39:27.389Z,85.90
2022-12-09T01:40:02.706Z,85.80
2022-12-09T01:40:38.039Z,85.70
2022-12-09T01:41:17.185Z,85.60
2022-12-09T01:41:52.949Z,85.60
2022-12-09T01:42:28.305Z,85.60
2022-12-09T01:43:02.216Z,85.60
2022-12-09T01:43:37.035Z,85.60
2022-12-09T01:44:15.592Z,85.70
2022-12-09T01:45:31.405Z,85.80
2022-12-09T01:46:06.998Z,85.90
2022-12-09T01:46:42.124Z,86.10
2022-12-09T01:47:22.788Z,86.40
2022-12-09T01:48:02.273Z,86.50
2022-12-09T01:48:40.395Z,86.70
2022-12-09T01:49:19.140Z,86.70
2022-12-09T01:49:53.318Z,86.50
2022-12-09T01:50:28.830Z,86.40
2022-12-09T01:51:07.827Z,86.50
2022-12-09T01:51:45.114Z,86.60
2022-12-09T01:52:23.747Z,86.80
2022-12-09T01:52:58.797Z,86.60
2022-12-09T01:53:38.185Z,86.60
2022-12-09T01:54:12.605Z,86.70
2022-12-09T01:54:49.711Z,86.60
2022-12-09T01:55:26.547Z,86.50
2022-12-09T01:56:07.676Z,86.50
2022-12-09T01:56:43.493Z,86.40
2022-12-09T01:57:17.622Z,86.20
2022-12-09T01:57:51.693Z,86.20
2022-12-09T01:58:27.957Z,86.20
2022-12-09T01:59:05.279Z,86.30
2022-12-09T01:59:40.649Z,86.20
2022-12-09T02:00:15.860Z,86.20
2022-12-09T02:00:52.147Z,86.20
2022-12-09T02:01:28.258Z,86.20
2022-12-09T02:02:05.730Z,86.10
2022-12-09T02:02:40.899Z,86.20
2022-12-09T02:03:15.350Z,86.20
2022-12-09T02:03:51.094Z,86.10
2022-12-09T02:04:26.283Z,86.20
2022-12-09T02:05:01.731Z,86.10
2022-12-09T02:05:37.030Z,86.10
2022-12-09T02:06:10.710Z,86.10
2022-12-09T02:06:47.553Z,86.10
2022-12-09T02:07:24.596Z,86.10
2022-12-09T02:07:58.613Z,86.20
2022-12-09T02:08:34.076Z,86.30
2022-12-09T02:09:11.030Z,86.50
2022-12-09T02:09:53.813Z,86.60
2022-12-09T02:10:47.147Z,86.80
2022-12-09T02:11:50.431Z,86.90
2022-12-09T02:12:35.125Z,86.80
2022-12-09T02:13:20.670Z,86.70
2022-12-09T02:14:04.113Z,86.50
2022-12-09T02:14:43.627Z,86.30
2022-12-09T02:15:23.651Z,86.30
2022-12-09T02:16:02.432Z,86.20
2022-12-09T02:16:50.592Z,86.10
2022-12-09T02:17:32.547Z,86.00
2022-12-09T02:18:14.964Z,85.90
2022-12-09T02:18:58.974Z,85.70
2022-12-09T02:19:50.238Z,85.70
2022-12-09T02:20:34.350Z,85.70
2022-12-09T02:21:13.225Z,85.70
2022-12-09T02:21:54.961Z,85.70
2022-12-09T02:22:34.185Z,85.80
2022-12-09T02:23:14.522Z,85.80
2022-12-09T02:23:58.414Z,85.90
2022-12-09T02:24:42.484Z,86.00
2022-12-09T02:25:29.599Z,86.10
2022-12-09T02:26:16.812Z,86.20
2022-12-09T02:27:00.513Z,86.50
2022-12-09T02:27:40.887Z,86.60
2022-12-09T02:28:42.473Z,86.60
2022-12-09T02:29:35.638Z,86.60
2022-12-09T02:30:17.673Z,86.60
2022-12-09T02:31:03.591Z,86.60
2022-12-09T02:32:10.451Z,86.60
2022-12-09T02:33:06.180Z,86.50
2022-12-09T02:33:47.471Z,86.50
2022-12-09T02:34:25.033Z,86.50
2022-12-09T02:35:11.344Z,86.60
2022-12-09T02:35:50.557Z,86.50
2022-12-09T02:36:29.040Z,86.40
2022-12-09T02:37:11.382Z,86.30
2022-12-09T02:37:53.790Z,86.30
2022-12-09T02:38:34.121Z,86.50
2022-12-09T02:39:10.563Z,86.70
2022-12-09T02:39:55.681Z,86.90
2022-12-09T02:40:40.518Z,87.30
2022-12-09T02:41:17.821Z,87.00
2022-12-09T02:41:55.977Z,86.90
2022-12-09T02:42:34.815Z,86.80
2022-12-09T02:43:12.182Z,86.60
2022-12-09T02:43:51.476Z,86.50
2022-12-09T02:44:32.084Z,86.50
2022-12-09T02:45:10.047Z,86.60
2022-12-09T02:45:48.965Z,86.60
2022-12-09T02:46:24.410Z,86.70
2022-12-09T02:47:02.338Z,86.70
2022-12-09T02:47:44.060Z,86.80
2022-12-09T02:48:25.591Z,86.80
2022-12-09T02:49:01.027Z,86.90
2022-12-09T02:49:37.848Z,87.00
2022-12-09T02:50:16.703Z,87.20
2022-12-09T02:50:52.304Z,87.30
2022-12-09T02:51:28.635Z,87.40
2022-12-09T02:52:09.702Z,87.50
2022-12-09T02:52:46.204Z,87.60
2022-12-09T02:53:20.881Z,87.70
2022-12-09T02:53:59.717Z,87.80
2022-12-09T02:54:37.176Z,87.90
2022-12-09T02:55:16.657Z,88.00
2022-12-09T02:55:53.405Z,88.10
2022-12-09T02:56:28.822Z,88.20
2022-12-09T02:57:09.680Z,88.30
2022-12-09T02:57:43.533Z,88.30
2022-12-09T02:58:20.774Z,88.40
2022-12-09T02:58:55.390Z,88.40
2022-12-09T02:59:32.801Z,88.30
2022-12-09T03:00:09.504Z,88.30
2022-12-09T03:00:44.981Z,88.40
2022-12-09T03:01:39.244Z,88.50
2022-12-09T03:02:22.958Z,88.60
2022-12-09T03:03:02.582Z,88.60
2022-12-09T03:03:38.246Z,88.70
2022-12-09T03:04:19.906Z,88.80
2022-12-09T03:05:09.459Z,88.90
2022-12-09T03:05:52.935Z,89.00
2022-12-09T03:06:35.443Z,89.10
2022-12-09T03:07:18.812Z,89.20
2022-12-09T03:08:04.087Z,89.10
2022-12-09T03:08:45.892Z,89.00
2022-12-09T03:09:24.321Z,89.00
2022-12-09T03:10:08.112Z,88.90
2022-12-09T03:10:48.247Z,88.80
2022-12-09T03:11:25.502Z,88.90
2022-12-09T03:12:01.420Z,89.00
2022-12-09T03:12:39.054Z,89.10
2022-12-09T03:13:19.533Z,89.30
2022-12-09T03:14:00.817Z,89.30
2022-12-09T03:14:39.581Z,89.40
2022-12-09T03:15:18.809Z,89.50
2022-12-09T03:16:00.319Z,89.50
2022-12-09T03:16:38.482Z,89.60
2022-12-09T03:17:17.074Z,89.60
2022-12-09T03:17:54.144Z,89.60
2022-12-09T03:18:31.358Z,89.70
2022-12-09T03:19:09.691Z,89.70
2022-12-09T03:19:49.272Z,89.70
2022-12-09T03:20:30.405Z,89.70
2022-12-09T03:21:07.215Z,89.60
2022-12-09T03:21:46.200Z,89.50
2022-12-09T03:22:24.147Z,89.40
2022-12-09T03:23:03.571Z,89.30
2022-12-09T03:23:39.219Z,89.30
2022-12-09T03:24:17.124Z,89.30
2022-12-09T03:24:57.936Z,89.20
2022-12-09T03:25:34.996Z,89.10
2022-12-09T03:26:10.216Z,88.90
2022-12-09T03:26:46.110Z,88.70
2022-12-09T03:27:26.057Z,88.60
2022-12-09T03:28:04.491Z,88.50
2022-12-09T03:28:45.924Z,88.50
2022-12-09T03:29:22.541Z,88.60
2022-12-09T03:29:58.856Z,88.60
2022-12-09T03:30:36.150Z,89.40
2022-12-09T03:31:17.137Z,89.10
2022-12-09T03:31:54.641Z,89.20
2022-12-09T03:32:31.193Z,89.20
2022-12-09T03:33:06.094Z,89.20
2022-12-09T03:33:44.607Z,89.40
2022-12-09T03:34:25.833Z,89.50
2022-12-09T03:35:05.798Z,89.50
2022-12-09T03:35:44.704Z,89.50
2022-12-09T03:36:21.335Z,89.60
2022-12-09T03:36:55.873Z,89.60
2022-12-09T03:37:35.192Z,89.70
2022-12-09T03:38:16.082Z,89.60
2022-12-09T03:38:52.973Z,89.60
2022-12-09T03:39:32.240Z,89.40
2022-12-09T03:40:13.951Z,89.30
2022-12-09T03:40:52.575Z,89.30
2022-12-09T03:41:31.486Z,89.30
2022-12-09T03:42:11.036Z,89.40
2022-12-09T03:42:50.814Z,89.50
2022-12-09T03:43:28.251Z,89.50
2022-12-09T03:44:09.179Z,89.40
2022-12-09T03:44:51.677Z,89.30
2022-12-09T03:45:26.761Z,89.30
2022-12-09T03:46:00.933Z,89.40
2022-12-09T03:46:37.232Z,89.60
2022-12-09T03:47:12.330Z,89.80
2022-12-09T03:47:47.034Z,89.80
2022-12-09T03:48:24.254Z,89.90
2022-12-09T03:48:59.204Z,90.00
2022-12-09T03:49:33.398Z,90.00
2022-12-09T03:50:13.108Z,90.00
2022-12-09T03:50:52.137Z,90.00
2022-12-09T03:51:30.187Z,90.00
2022-12-09T03:52:13.716Z,90.00
2022-12-09T03:52:52.082Z,89.90
2022-12-09T03:53:34.231Z,89.80
2022-12-09T03:54:13.866Z,89.70
2022-12-09T03:54:51.887Z,89.70
2022-12-09T03:55:32.169Z,89.70
2022-12-09T03:56:10.344Z,89.60
2022-12-09T03:56:49.942Z,89.60
2022-12-09T03:57:26.786Z,89.60
2022-12-09T03:58:05.078Z,89.50
2022-12-09T03:58:43.443Z,89.40
2022-12-09T03:59:18.112Z,89.40
2022-12-09T03:59:55.451Z,89.50
2022-12-09T04:00:29.924Z,89.60
2022-12-09T04:01:04.091Z,89.80
2022-12-09T04:01:41.673Z,89.90
2022-12-09T04:02:17.546Z,90.00
2022-12-09T04:02:53.528Z,90.00
2022-12-09T04:03:30.010Z,90.00
2022-12-09T04:04:05.049Z,90.00
2022-12-09T04:04:42.637Z,89.90
2022-12-09T04:05:17.721Z,89.80
2022-12-09T04:05:53.653Z,89.90
2022-12-09T04:06:29.117Z,90.00
2022-12-09T04:07:03.876Z,90.10
2022-12-09T04:07:40.255Z,90.10
2022-12-09T04:08:14.612Z,90.10
2022-12-09T04:08:49.444Z,90.20
2022-12-09T04:09:24.179Z,90.20
2022-12-09T04:09:58.946Z,90.20
2022-12-09T04:10:33.358Z,90.10
2022-12-09T04:11:10.050Z,90.10
2022-12-09T04:11:45.246Z,90.10
2022-12-09T04:12:19.043Z,90.20
2022-12-09T04:12:54.442Z,90.20
2022-12-09T04:13:29.955Z,90.20
2022-12-09T04:14:08.123Z,90.20
2022-12-09T04:14:48.418Z,90.20
2022-12-09T04:15:23.665Z,90.30
2022-12-09T04:15:58.085Z,90.30
2022-12-09T04:16:33.360Z,90.50
2022-12-09T04:17:08.383Z,90.70
2022-12-09T04:17:43.149Z,90.80
2022-12-09T04:18:19.465Z,90.80
2022-12-09T04:18:54.744Z,90.90
2022-12-09T04:19:28.916Z,90.90
2022-12-09T04:20:03.918Z,90.90
2022-12-09T04:20:39.717Z,90.90
2022-12-09T04:21:16.159Z,90.90
2022-12-09T04:21:51.582Z,91.00
2022-12-09T04:22:25.719Z,91.00
2022-12-09T04:23:01.264Z,91.20
2022-12-09T04:23:42.506Z,90.90
2022-12-09T04:24:17.383Z,91.00
2022-12-09T04:24:51.886Z,91.00
2022-12-09T04:25:27.687Z,91.00
2022-12-09T04:26:01.503Z,91.00
2022-12-09T04:26:36.841Z,91.00
2022-12-09T04:27:11.848Z,91.10
2022-12-09T04:27:46.239Z,91.10
2022-12-09T04:28:22.801Z,91.10
2022-12-09T04:28:57.994Z,91.20
2022-12-09T04:29:32.650Z,91.30
2022-12-09T04:30:09.597Z,91.50
2022-12-09T04:30:46.385Z,91.60
2022-12-09T04:31:22.332Z,91.70
2022-12-09T04:31:57.164Z,91.80
2022-12-09T04:32:32.241Z,91.80
2022-12-09T04:33:07.549Z,91.80
2022-12-09T04:33:42.877Z,91.70
2022-12-09T04:34:18.051Z,91.60
2022-12-09T04:34:53.127Z,91.60
2022-12-09T04:35:28.739Z,91.60
2022-12-09T04:36:06.312Z,91.60
2022-12-09T04:36:42.861Z,91.60
2022-12-09T04:37:17.991Z,91.60
2022-12-09T04:37:51.711Z,91.60
2022-12-09T04:38:27.637Z,91.70
2022-12-09T04:39:02.344Z,91.70
2022-12-09T04:39:39.555Z,91.80
2022-12-09T04:40:22.787Z,91.80
2022-12-09T04:41:00.221Z,91.80
2022-12-09T04:41:37.519Z,91.80
2022-12-09T04:42:12.916Z,91.90
2022-12-09T04:42:48.102Z,91.90
2022-12-09T04:43:23.496Z,91.90
2022-12-09T04:44:00.032Z,92.00
2022-12-09T04:44:34.335Z,92.00
2022-12-09T04:45:12.670Z,92.00
2022-12-09T04:45:47.600Z,91.90
2022-12-09T04:46:23.943Z,91.90
2022-12-09T04:47:01.229Z,92.00
2022-12-09T04:47:36.056Z,91.90
2022-12-09T04:48:10.787Z,91.90
2022-12-09T04:48:47.041Z,91.80
2022-12-09T04:49:22.215Z,91.80
2022-12-09T04:49:57.796Z,91.70
2022-12-09T04:50:33.234Z,91.70
2022-12-09T04:51:10.505Z,91.80
2022-12-09T04:51:47.167Z,91.90
2022-12-09T04:52:23.469Z,92.00
2022-12-09T04:52:57.307Z,92.00
2022-12-09T04:53:31.679Z,92.00
2022-12-09T04:54:07.772Z,91.90
2022-12-09T04:54:42.989Z,91.80
2022-12-09T04:55:18.815Z,91.80
2022-12-09T04:56:01.403Z,91.70
2022-12-09T04:56:37.270Z,91.70
2022-12-09T04:57:14.035Z,91.70
2022-12-09T04:57:48.074Z,91.80
2022-12-09T04:58:23.014Z,91.80
2022-12-09T04:58:59.331Z,92.00
2022-12-09T04:59:33.680Z,92.10
2022-12-09T05:00:11.197Z,92.20
2022-12-09T05:00:46.549Z,92.30
2022-12-09T05:01:28.466Z,92.30
2022-12-09T05:02:06.452Z,92.30
2022-12-09T05:02:41.002Z,92.40
2022-12-09T05:03:16.309Z,92.30
2022-12-09T05:03:52.438Z,92.20
2022-12-09T05:04:28.220Z,92.10
2022-12-09T05:05:04.843Z,92.00
2022-12-09T05:05:41.767Z,92.00
2022-12-09T05:06:17.034Z,91.90
2022-12-09T05:06:55.703Z,91.90
2022-12-09T05:07:31.481Z,91.80
2022-12-09T05:08:08.084Z,91.70
2022-12-09T05:08:44.789Z,91.70
2022-12-09T05:09:21.047Z,91.70
2022-12-09T05:09:59.007Z,91.70
2022-12-09T05:10:33.916Z,91.70
2022-12-09T05:11:08.737Z,91.70
2022-12-09T05:11:44.834Z,91.80
2022-12-09T05:12:19.451Z,91.90
2022-12-09T05:12:53.921Z,92.10
2022-12-09T05:13:29.325Z,91.80
2022-12-09T05:14:04.355Z,91.90
2022-12-09T05:14:40.002Z,91.80
2022-12-09T05:15:15.016Z,91.80
2022-12-09T05:15:51.976Z,91.70
2022-12-09T05:16:30.412Z,91.60
2022-12-09T05:17:08.129Z,91.60
2022-12-09T05:17:46.186Z,91.60
2022-12-09T05:18:23.848Z,91.60
2022-12-09T05:19:01.616Z,91.70
2022-12-09T05:19:35.674Z,91.70
2022-12-09T05:20:13.153Z,91.80
2022-12-09T05:20:52.407Z,91.80
2022-12-09T05:21:26.965Z,91.80
2022-12-09T05:22:02.356Z,91.80
2022-12-09T05:22:37.535Z,91.70
2022-12-09T05:23:12.682Z,91.60
2022-12-09T05:23:48.874Z,91.50
2022-12-09T05:24:25.575Z,91.40
2022-12-09T05:25:01.124Z,91.30
2022-12-09T05:25:36.141Z,91.30
2022-12-09T05:26:14.691Z,91.30
2022-12-09T05:26:50.147Z,91.20
2022-12-09T05:27:27.615Z,91.30
2022-12-09T05:28:01.636Z,91.20
2022-12-09T05:28:38.334Z,91.30
2022-12-09T05:29:16.675Z,91.30
2022-12-09T05:29:55.384Z,91.40
2022-12-09T05:30:30.065Z,91.50
2022-12-09T05:31:08.629Z,91.60
2022-12-09T05:31:43.357Z,91.80
2022-12-09T05:32:19.944Z,91.90
2022-12-09T05:32:54.629Z,91.90
2022-12-09T05:33:30.684Z,91.90
2022-12-09T05:34:08.472Z,91.90
2022-12-09T05:34:43.736Z,91.90
2022-12-09T05:35:18.758Z,91.80
2022-12-09T05:35:55.236Z,91.70
2022-12-09T05:36:31.111Z,91.70
2022-12-09T05:37:08.965Z,91.70
2022-12-09T05:37:43.166Z,91.80
2022-12-09T05:38:20.155Z,91.80
2022-12-09T05:38:55.898Z,91.80
2022-12-09T05:39:32.755Z,91.90
2022-12-09T05:40:08.768Z,91.90
2022-12-09T05:40:43.347Z,91.80
2022-12-09T05:41:18.420Z,91.80
2022-12-09T05:41:53.471Z,91.70
2022-12-09T05:42:28.376Z,91.60
2022-12-09T05:43:03.949Z,91.50
2022-12-09T05:43:41.238Z,91.50
2022-12-09T05:44:17.692Z,91.50
2022-12-09T05:44:53.170Z,91.50
2022-12-09T05:45:28.540Z,91.40
2022-12-09T05:46:04.453Z,91.40
2022-12-09T05:46:39.671Z,91.30
2022-12-09T05:47:15.629Z,91.30
2022-12-09T05:47:49.866Z,91.30
2022-12-09T05:48:24.261Z,91.30
2022-12-09T05:48:58.700Z,91.40
2022-12-09T05:49:34.924Z,91.30
2022-12-09T05:50:12.613Z,91.40
2022-12-09T05:50:58.196Z,91.50
2022-12-09T05:51:35.166Z,91.50
2022-12-09T05:52:16.804Z,91.60
2022-12-09T05:52:52.889Z,91.60
2022-12-09T05:53:28.437Z,91.60
2022-12-09T05:54:04.726Z,91.70
2022-12-09T05:54:41.658Z,91.70
2022-12-09T05:55:16.260Z,91.70
2022-12-09T05:55:50.740Z,91.70
2022-12-09T05:56:27.525Z,91.60
2022-12-09T05:57:04.717Z,91.60
2022-12-09T05:57:40.350Z,91.50
2022-12-09T05:58:15.499Z,91.40
2022-12-09T05:58:49.802Z,91.30
2022-12-09T05:59:26.599Z,91.20
2022-12-09T06:00:01.321Z,91.20
2022-12-09T06:00:45.918Z,91.20
2022-12-09T06:01:22.148Z,91.20
2022-12-09T06:01:57.977Z,91.20
2022-12-09T06:02:33.165Z,91.10
2022-12-09T06:03:08.025Z,91.10
2022-12-09T06:03:44.937Z,91.20
2022-12-09T06:04:20.353Z,91.30
2022-12-09T06:04:56.314Z,91.40
2022-12-09T06:05:33.420Z,91.40
2022-12-09T06:06:08.909Z,91.30
2022-12-09T06:06:44.215Z,91.20
2022-12-09T06:07:20.596Z,91.20
2022-12-09T06:07:54.825Z,91.20
2022-12-09T06:08:29.201Z,91.20
2022-12-09T06:09:05.244Z,91.10
2022-12-09T06:09:41.017Z,91.10
2022-12-09T06:10:16.224Z,91.10
2022-12-09T06:10:52.314Z,91.10
2022-12-09T06:11:27.852Z,91.00
2022-12-09T06:12:06.000Z,91.00
2022-12-09T06:12:39.347Z,91.00
2022-12-09T06:13:13.515Z,90.90
2022-12-09T06:13:49.047Z,90.90
2022-12-09T06:14:23.627Z,90.90
2022-12-09T06:14:57.257Z,91.00
2022-12-09T06:15:33.704Z,91.00
2022-12-09T06:16:11.400Z,91.00
2022-12-09T06:16:46.097Z,91.00
2022-12-09T06:17:21.695Z,90.90
2022-12-09T06:17:58.110Z,90.80
2022-12-09T06:18:32.900Z,90.90
2022-12-09T06:19:09.458Z,90.90
2022-12-09T06:19:43.853Z,91.00
2022-12-09T06:20:20.114Z,91.10
2022-12-09T06:20:56.190Z,91.10
2022-12-09T06:21:29.880Z,91.10
2022-12-09T06:22:08.937Z,91.00
2022-12-09T06:22:46.360Z,90.90
2022-12-09T06:23:21.371Z,90.90
2022-12-09T06:23:56.805Z,90.80
2022-12-09T06:24:33.023Z,90.70
2022-12-09T06:25:07.830Z,90.60
2022-12-09T06:25:46.481Z,90.60
2022-12-09T06:26:23.171Z,90.70
2022-12-09T06:26:59.604Z,90.70
2022-12-09T06:27:33.429Z,90.70
2022-12-09T06:28:08.739Z,90.60
2022-12-09T06:28:43.444Z,90.60
2022-12-09T06:29:19.054Z,90.50
2022-12-09T06:29:55.947Z,90.50
2022-12-09T06:30:30.182Z,90.40
2022-12-09T06:31:05.079Z,90.40
2022-12-09T06:31:40.310Z,90.40
2022-12-09T06:32:15.146Z,90.40
2022-12-09T06:32:49.884Z,90.30
2022-12-09T06:33:53.090Z,90.40
2022-12-09T06:34:19.470Z,90.50
2022-12-09T06:34:56.669Z,90.60
2022-12-09T06:35:31.593Z,90.50
2022-12-09T06:36:07.243Z,90.50
2022-12-09T06:36:42.889Z,90.40
2022-12-09T06:37:18.356Z,90.40
2022-12-09T06:37:53.695Z,90.40
2022-12-09T06:38:28.893Z,90.30
2022-12-09T06:39:09.892Z,90.20
2022-12-09T06:39:47.868Z,90.10
2022-12-09T06:40:23.471Z,89.80
2022-12-09T06:40:58.257Z,89.50
2022-12-09T06:41:33.513Z,89.50
2022-12-09T06:42:08.978Z,89.60
2022-12-09T06:42:45.153Z,89.40
2022-12-09T06:43:19.509Z,89.40
2022-12-09T06:43:53.288Z,89.40
2022-12-09T06:44:28.557Z,89.40
2022-12-09T06:45:02.530Z,89.80
2022-12-09T06:45:37.737Z,89.90
2022-12-09T06:46:17.206Z,90.00
2022-12-09T06:46:52.235Z,90.10
2022-12-09T06:47:29.037Z,90.20
2022-12-09T06:48:03.573Z,90.20
2022-12-09T06:48:40.916Z,90.20
2022-12-09T06:49:15.084Z,90.20
2022-12-09T06:49:50.206Z,90.30
2022-12-09T06:50:25.238Z,90.30
2022-12-09T06:51:00.487Z,90.30
2022-12-09T06:51:35.770Z,90.20
2022-12-09T06:52:11.747Z,90.10
2022-12-09T06:52:47.227Z,90.00
2022-12-09T06:53:22.893Z,89.70
2022-12-09T06:53:58.070Z,89.70
2022-12-09T06:54:32.823Z,89.60
2022-12-09T06:55:11.530Z,89.70
2022-12-09T06:55:46.174Z,89.80
2022-12-09T06:56:21.801Z,90.00
2022-12-09T06:56:57.707Z,90.10
2022-12-09T06:57:33.466Z,90.10
2022-12-09T06:58:08.903Z,90.10
2022-12-09T06:58:44.676Z,90.10
2022-12-09T06:59:21.233Z,90.10
2022-12-09T06:59:55.623Z,90.10
2022-12-09T07:00:30.099Z,90.20
2022-12-09T07:01:09.628Z,90.20
2022-12-09T07:01:43.993Z,90.20
2022-12-09T07:02:19.858Z,90.10
2022-12-09T07:02:54.573Z,90.10
2022-12-09T07:03:30.816Z,90.20
2022-12-09T07:04:08.302Z,90.20
2022-12-09T07:04:44.473Z,90.30
2022-12-09T07:05:20.060Z,90.30
2022-12-09T07:05:55.626Z,90.40
2022-12-09T07:06:32.832Z,90.40
2022-12-09T07:07:07.495Z,90.40
2022-12-09T07:07:43.419Z,90.40
2022-12-09T07:08:19.123Z,90.20
2022-12-09T07:08:57.375Z,90.10
2022-12-09T07:09:33.302Z,90.00
2022-12-09T07:10:11.444Z,90.10
2022-12-09T07:10:56.238Z,90.30
2022-12-09T07:11:31.970Z,90.30
2022-12-09T07:12:09.830Z,90.30
2022-12-09T07:12:44.671Z,90.30
2022-12-09T07:13:18.946Z,90.30
2022-12-09T07:13:54.125Z,90.40
2022-12-09T07:14:28.887Z,90.40
2022-12-09T07:15:05.695Z,90.70
2022-12-09T07:15:40.925Z,90.40
2022-12-09T07:16:16.359Z,90.40
2022-12-09T07:16:52.149Z,90.30
2022-12-09T07:17:27.119Z,90.30
2022-12-09T07:18:03.865Z,90.30
2022-12-09T07:18:38.877Z,90.30
2022-12-09T07:19:18.349Z,90.30
2022-12-09T07:19:53.528Z,90.20
2022-12-09T07:20:29.079Z,90.30
2022-12-09T07:21:08.701Z,90.30
2022-12-09T07:21:44.345Z,90.30
2022-12-09T07:22:18.535Z,90.40
2022-12-09T07:22:55.053Z,90.50
2022-12-09T07:23:29.568Z,90.60
2022-12-09T07:24:07.801Z,90.90
2022-12-09T07:24:41.947Z,90.60
2022-12-09T07:25:18.672Z,90.60
2022-12-09T07:25:57.999Z,90.50
2022-12-09T07:26:34.527Z,90.50
2022-12-09T07:27:14.315Z,90.40
2022-12-09T07:27:52.852Z,90.40
2022-12-09T07:28:28.145Z,90.40
2022-12-09T07:29:03.291Z,90.30
2022-12-09T07:29:39.595Z,90.30
2022-12-09T07:30:16.425Z,90.30
2022-12-09T07:30:53.204Z,90.30
2022-12-09T07:31:29.650Z,90.30
2022-12-09T07:32:06.455Z,90.30
2022-12-09T07:32:40.722Z,90.20
2022-12-09T07:33:15.985Z,90.30
2022-12-09T07:33:51.224Z,90.30
2022-12-09T07:34:28.198Z,90.40
2022-12-09T07:35:03.013Z,90.50
2022-12-09T07:35:40.111Z,90.50
2022-12-09T07:36:19.198Z,90.60
2022-12-09T07:36:56.716Z,90.60
2022-12-09T07:37:31.741Z,90.70
2022-12-09T07:38:06.861Z,90.70
2022-12-09T07:38:42.707Z,90.70
2022-12-09T07:39:20.648Z,90.70
2022-12-09T07:39:56.486Z,90.70
2022-12-09T07:40:31.584Z,90.80
2022-12-09T07:41:07.616Z,91.10
2022-12-09T07:41:42.865Z,90.90
2022-12-09T07:42:17.999Z,91.00
2022-12-09T07:43:00.038Z,90.90
2022-12-09T07:43:34.318Z,90.80
2022-12-09T07:44:11.256Z,90.80
2022-12-09T07:44:45.528Z,91.00
2022-12-09T07:45:21.528Z,90.70
2022-12-09T07:45:56.681Z,90.70
2022-12-09T07:46:33.129Z,90.70
2022-12-09T07:47:07.048Z,90.50
2022-12-09T07:47:43.100Z,90.50
2022-12-09T07:48:18.631Z,90.50
2022-12-09T07:48:54.400Z,90.50
2022-12-09T07:49:29.908Z,90.50
2022-12-09T07:50:07.056Z,90.50
2022-12-09T07:50:43.433Z,90.40
2022-12-09T07:51:17.795Z,90.50
2022-12-09T07:51:53.610Z,90.40
2022-12-09T07:52:28.881Z,90.30
2022-12-09T07:53:05.031Z,90.20
2022-12-09T07:53:39.890Z,90.00
2022-12-09T07:54:14.700Z,90.00
2022-12-09T07:54:50.543Z,89.90
2022-12-09T07:55:24.908Z,90.00
2022-12-09T07:56:05.317Z,90.00
2022-12-09T07:56:38.529Z,90.00
2022-12-09T07:57:14.327Z,90.10
2022-12-09T07:57:49.869Z,90.20
2022-12-09T07:58:23.968Z,90.20
2022-12-09T07:58:59.490Z,90.30
2022-12-09T07:59:36.716Z,90.30
2022-12-09T08:00:12.869Z,90.60
2022-12-09T08:00:49.126Z,90.30
2022-12-09T08:01:25.497Z,90.30
2022-12-09T08:02:06.608Z,90.20
2022-12-09T08:02:42.365Z,90.20
2022-12-09T08:03:17.012Z,90.20
2022-12-09T08:03:54.435Z,90.20
2022-12-09T08:04:29.372Z,90.20
2022-12-09T08:05:06.849Z,90.20
2022-12-09T08:05:47.220Z,90.30
2022-12-09T08:06:25.988Z,90.30
2022-12-09T08:07:01.762Z,90.30
2022-12-09T08:07:42.215Z,90.30
2022-12-09T08:08:18.960Z,90.30
2022-12-09T08:08:55.791Z,90.30
2022-12-09T08:09:31.490Z,90.30
2022-12-09T08:10:10.278Z,90.40
2022-12-09T08:10:45.419Z,90.40
2022-12-09T08:11:23.480Z,90.30
2022-12-09T08:12:00.227Z,90.30
2022-12-09T08:12:35.575Z,90.30
2022-12-09T08:13:09.714Z,90.40
2022-12-09T08:13:46.316Z,90.40
2022-12-09T08:14:20.427Z,90.40
2022-12-09T08:14:55.350Z,90.40
2022-12-09T08:15:30.380Z,90.40
2022-12-09T08:16:07.219Z,90.40
2022-12-09T08:16:43.596Z,90.40
2022-12-09T08:17:20.571Z,90.50
2022-12-09T08:17:55.222Z,90.50
2022-12-09T08:18:30.454Z,90.60
2022-12-09T08:19:07.156Z,90.70
2022-12-09T08:19:42.791Z,91.00
2022-12-09T08:20:21.435Z,90.90
2022-12-09T08:21:00.945Z,91.10
2022-12-09T08:21:35.960Z,91.20
2022-12-09T08:22:11.742Z,91.30
2022-12-09T08:22:46.766Z,91.20
2022-12-09T08:23:23.518Z,91.10
2022-12-09T08:23:59.935Z,91.10
2022-12-09T08:24:35.412Z,91.00
2022-12-09T08:25:12.446Z,91.00
2022-12-09T08:25:48.086Z,91.00
2022-12-09T08:26:24.991Z,91.00
2022-12-09T08:27:00.422Z,91.00
2022-12-09T08:27:35.891Z,90.90
2022-12-09T08:28:11.686Z,90.90
2022-12-09T08:28:46.211Z,90.90
2022-12-09T08:29:21.658Z,90.90
2022-12-09T08:29:57.767Z,91.00
2022-12-09T08:30:32.754Z,91.00
2022-12-09T08:31:09.307Z,91.10
2022-12-09T08:31:45.425Z,91.30
2022-12-09T08:32:20.218Z,91.40
2022-12-09T08:32:58.043Z,91.50
2022-12-09T08:33:35.434Z,91.50
2022-12-09T08:34:12.149Z,91.40
2022-12-09T08:34:47.601Z,91.40
2022-12-09T08:35:24.370Z,91.40
2022-12-09T08:36:00.535Z,91.40
2022-12-09T08:36:37.781Z,91.30
2022-12-09T08:37:12.742Z,91.20
2022-12-09T08:37:47.884Z,91.10
2022-12-09T08:38:23.439Z,91.10
2022-12-09T08:39:00.705Z,91.00
2022-12-09T08:39:36.795Z,91.10
2022-12-09T08:40:15.646Z,91.10
2022-12-09T08:40:50.611Z,91.10
2022-12-09T08:41:36.205Z,91.10
2022-12-09T08:42:12.959Z,91.10
2022-12-09T08:42:48.438Z,91.10
2022-12-09T08:43:27.112Z,91.10
2022-12-09T08:44:02.892Z,91.10
2022-12-09T08:44:40.822Z,91.00
2022-12-09T08:45:18.217Z,91.00
2022-12-09T08:45:53.975Z,91.00
2022-12-09T08:46:29.475Z,90.90
2022-12-09T08:47:06.617Z,90.90
2022-12-09T08:47:45.204Z,90.90
2022-12-09T08:48:20.586Z,90.90
2022-12-09T08:48:56.491Z,91.00
2022-12-09T08:49:31.432Z,91.00
2022-12-09T08:50:11.335Z,91.00
2022-12-09T08:50:46.201Z,91.00
2022-12-09T08:51:21.604Z,91.10
2022-12-09T08:51:57.531Z,91.10
2022-12-09T08:52:37.226Z,91.20
2022-12-09T08:53:14.641Z,91.30
2022-12-09T08:53:49.999Z,91.50
2022-12-09T08:54:24.938Z,91.70
2022-12-09T08:55:01.414Z,91.80
2022-12-09T08:55:40.819Z,91.70
2022-12-09T08:56:18.278Z,91.70